sensor_id;sensor_type;location;lat;lon;timestamp;temperature;humidity
19220;DHT22;9744;49.364;7.484;2024-03-17T00:02:20;8.50;99.90
19220;DHT22;9744;49.364;7.484;2024-03-17T00:04:48;8.50;99.90
19220;DHT22;9744;49.364;7.484;2024-03-17T00:07:16;8.50;99.90
19220;DHT22;9744;49.364;7.484;2024-03-17T00:09:42;8.50;99.90
19220;DHT22;9744;49.364;7.484;2024-03-17T00:12:12;8.50;99.90
19220;DHT22;9744;49.364;7.484;2024-03-17T00:14:39;8.40;99.90
19220;DHT22;9744;49.364;7.484;2024-03-17T00:17:06;8.40;99.90
19220;DHT22;9744;49.364;7.484;2024-03-17T00:19:32;8.30;99.90
19220;DHT22;9744;49.364;7.484;2024-03-17T00:22:01;8.30;99.90
19220;DHT22;9744;49.364;7.484;2024-03-17T00:24:27;8.30;99.90
19220;DHT22;9744;49.364;7.484;2024-03-17T00:27:01;8.40;99.90
19220;DHT22;9744;49.364;7.484;2024-03-17T00:29:27;8.30;99.90
19220;DHT22;9744;49.364;7.484;2024-03-17T00:31:55;8.30;99.90
19220;DHT22;9744;49.364;7.484;2024-03-17T00:34:22;8.30;99.90
19220;DHT22;9744;49.364;7.484;2024-03-17T00:36:49;8.30;99.90
19220;DHT22;9744;49.364;7.484;2024-03-17T00:39:18;8.30;99.90
19220;DHT22;9744;49.364;7.484;2024-03-17T00:41:46;8.30;99.90
19220;DHT22;9744;49.364;7.484;2024-03-17T00:44:12;8.30;99.90
19220;DHT22;9744;49.364;7.484;2024-03-17T00:46:39;8.30;99.90
19220;DHT22;9744;49.364;7.484;2024-03-17T00:49:12;8.30;99.90
19220;DHT22;9744;49.364;7.484;2024-03-17T00:51:39;8.20;99.90
19220;DHT22;9744;49.364;7.484;2024-03-17T00:54:06;8.10;99.90
19220;DHT22;9744;49.364;7.484;2024-03-17T00:56:34;8.00;99.90
19220;DHT22;9744;49.364;7.484;2024-03-17T00:59:00;8.00;99.90
19220;DHT22;9744;49.364;7.484;2024-03-17T01:01:28;8.00;99.90
19220;DHT22;9744;49.364;7.484;2024-03-17T01:03:54;7.90;99.90
19220;DHT22;9744;49.364;7.484;2024-03-17T01:06:21;7.90;99.90
19220;DHT22;9744;49.364;7.484;2024-03-17T01:08:47;7.80;99.90
19220;DHT22;9744;49.364;7.484;2024-03-17T01:11:17;7.50;99.90
19220;DHT22;9744;49.364;7.484;2024-03-17T01:13:46;7.30;99.90
19220;DHT22;9744;49.364;7.484;2024-03-17T01:16:15;7.20;99.90
19220;DHT22;9744;49.364;7.484;2024-03-17T01:18:41;7.00;99.90
19220;DHT22;9744;49.364;7.484;2024-03-17T01:21:10;7.00;99.90
19220;DHT22;9744;49.364;7.484;2024-03-17T01:23:37;7.10;99.90
19220;DHT22;9744;49.364;7.484;2024-03-17T01:26:04;7.40;99.90
19220;DHT22;9744;49.364;7.484;2024-03-17T01:28:31;7.60;99.90
19220;DHT22;9744;49.364;7.484;2024-03-17T01:31:00;7.70;99.90
19220;DHT22;9744;49.364;7.484;2024-03-17T01:33:26;7.80;99.90
19220;DHT22;9744;49.364;7.484;2024-03-17T01:35:53;7.90;99.90
19220;DHT22;9744;49.364;7.484;2024-03-17T01:38:19;8.00;99.90
19220;DHT22;9744;49.364;7.484;2024-03-17T01:40:50;8.10;99.90
19220;DHT22;9744;49.364;7.484;2024-03-17T01:43:16;8.10;99.90
19220;DHT22;9744;49.364;7.484;2024-03-17T01:45:45;8.10;99.90
19220;DHT22;9744;49.364;7.484;2024-03-17T01:48:14;8.00;99.90
19220;DHT22;9744;49.364;7.484;2024-03-17T01:50:43;7.50;99.90
19220;DHT22;9744;49.364;7.484;2024-03-17T01:53:11;7.10;99.90
19220;DHT22;9744;49.364;7.484;2024-03-17T01:55:43;6.90;99.90
19220;DHT22;9744;49.364;7.484;2024-03-17T01:58:10;6.60;99.90
19220;DHT22;9744;49.364;7.484;2024-03-17T02:00:37;6.30;99.90
19220;DHT22;9744;49.364;7.484;2024-03-17T02:03:05;6.20;99.90
19220;DHT22;9744;49.364;7.484;2024-03-17T02:05:37;6.10;99.90
19220;DHT22;9744;49.364;7.484;2024-03-17T02:08:04;6.10;99.90
19220;DHT22;9744;49.364;7.484;2024-03-17T02:10:31;6.00;99.90
19220;DHT22;9744;49.364;7.484;2024-03-17T02:12:59;5.90;99.90
19220;DHT22;9744;49.364;7.484;2024-03-17T02:15:28;5.80;99.90
19220;DHT22;9744;49.364;7.484;2024-03-17T02:17:54;5.70;99.90
19220;DHT22;9744;49.364;7.484;2024-03-17T02:20:21;5.70;99.90
19220;DHT22;9744;49.364;7.484;2024-03-17T02:23:11;5.70;99.90
19220;DHT22;9744;49.364;7.484;2024-03-17T02:25:37;5.60;99.90
19220;DHT22;9744;49.364;7.484;2024-03-17T02:28:05;5.50;99.90
19220;DHT22;9744;49.364;7.484;2024-03-17T02:48:12;5.10;99.90
19220;DHT22;9744;49.364;7.484;2024-03-17T02:50:39;5.10;99.90
19220;DHT22;9744;49.364;7.484;2024-03-17T02:53:06;5.10;99.90
19220;DHT22;9744;49.364;7.484;2024-03-17T03:07:07;5.00;99.90
19220;DHT22;9744;49.364;7.484;2024-03-17T03:09:34;5.00;99.90
19220;DHT22;9744;49.364;7.484;2024-03-17T03:12:02;5.00;99.90
19220;DHT22;9744;49.364;7.484;2024-03-17T03:14:29;5.00;99.90
19220;DHT22;9744;49.364;7.484;2024-03-17T03:16:57;5.10;99.90
19220;DHT22;9744;49.364;7.484;2024-03-17T03:19:25;5.00;99.90
19220;DHT22;9744;49.364;7.484;2024-03-17T03:21:53;5.00;99.90
19220;DHT22;9744;49.364;7.484;2024-03-17T03:24:22;4.90;99.90
19220;DHT22;9744;49.364;7.484;2024-03-17T03:26:49;4.90;99.90
19220;DHT22;9744;49.364;7.484;2024-03-17T03:29:16;4.90;99.90
19220;DHT22;9744;49.364;7.484;2024-03-17T03:31:43;4.80;99.90
19220;DHT22;9744;49.364;7.484;2024-03-17T03:34:12;4.70;99.90
19220;DHT22;9744;49.364;7.484;2024-03-17T03:36:39;4.70;99.90
19220;DHT22;9744;49.364;7.484;2024-03-17T03:39:07;4.70;99.90
19220;DHT22;9744;49.364;7.484;2024-03-17T03:41:38;4.80;99.90
19220;DHT22;9744;49.364;7.484;2024-03-17T03:44:05;4.80;99.90
19220;DHT22;9744;49.364;7.484;2024-03-17T03:46:34;4.80;99.90
19220;DHT22;9744;49.364;7.484;2024-03-17T03:49:01;4.80;99.90
19220;DHT22;9744;49.364;7.484;2024-03-17T03:51:29;4.70;99.90
19220;DHT22;9744;49.364;7.484;2024-03-17T03:53:57;4.70;99.90
19220;DHT22;9744;49.364;7.484;2024-03-17T03:56:24;4.60;99.90
19220;DHT22;9744;49.364;7.484;2024-03-17T03:58:53;4.60;99.90
19220;DHT22;9744;49.364;7.484;2024-03-17T04:01:20;4.60;99.90
19220;DHT22;9744;49.364;7.484;2024-03-17T04:03:48;4.50;99.90
19220;DHT22;9744;49.364;7.484;2024-03-17T04:06:16;4.60;99.90
19220;DHT22;9744;49.364;7.484;2024-03-17T04:08:43;4.60;99.90
19220;DHT22;9744;49.364;7.484;2024-03-17T04:11:11;4.60;99.90
19220;DHT22;9744;49.364;7.484;2024-03-17T04:13:38;4.70;99.90
19220;DHT22;9744;49.364;7.484;2024-03-17T04:16:08;4.90;99.90
19220;DHT22;9744;49.364;7.484;2024-03-17T04:18:36;5.10;99.90
19220;DHT22;9744;49.364;7.484;2024-03-17T04:21:05;5.30;99.90
19220;DHT22;9744;49.364;7.484;2024-03-17T04:23:33;5.50;99.90
19220;DHT22;9744;49.364;7.484;2024-03-17T04:26:01;5.70;99.90
19220;DHT22;9744;49.364;7.484;2024-03-17T04:28:30;5.80;99.90
19220;DHT22;9744;49.364;7.484;2024-03-17T04:31:04;5.80;99.90
19220;DHT22;9744;49.364;7.484;2024-03-17T04:33:32;5.80;99.90
19220;DHT22;9744;49.364;7.484;2024-03-17T04:36:00;5.90;99.90
19220;DHT22;9744;49.364;7.484;2024-03-17T04:38:28;5.80;99.90
19220;DHT22;9744;49.364;7.484;2024-03-17T04:40:55;5.90;99.90
19220;DHT22;9744;49.364;7.484;2024-03-17T04:43:30;5.80;99.90
19220;DHT22;9744;49.364;7.484;2024-03-17T04:46:03;5.80;99.90
19220;DHT22;9744;49.364;7.484;2024-03-17T04:48:34;5.90;99.90
19220;DHT22;9744;49.364;7.484;2024-03-17T04:51:01;6.00;99.90
19220;DHT22;9744;49.364;7.484;2024-03-17T04:53:28;6.00;99.90
19220;DHT22;9744;49.364;7.484;2024-03-17T04:56:00;6.20;99.90
19220;DHT22;9744;49.364;7.484;2024-03-17T04:58:28;6.20;99.90
19220;DHT22;9744;49.364;7.484;2024-03-17T05:00:55;6.20;99.90
19220;DHT22;9744;49.364;7.484;2024-03-17T05:03:23;6.20;99.90
19220;DHT22;9744;49.364;7.484;2024-03-17T05:05:59;6.30;99.90
19220;DHT22;9744;49.364;7.484;2024-03-17T05:08:30;6.30;99.90
19220;DHT22;9744;49.364;7.484;2024-03-17T05:10:58;6.30;99.90
19220;DHT22;9744;49.364;7.484;2024-03-17T05:13:26;6.40;99.90
19220;DHT22;9744;49.364;7.484;2024-03-17T05:15:54;6.40;99.90
19220;DHT22;9744;49.364;7.484;2024-03-17T05:18:22;6.50;99.90
19220;DHT22;9744;49.364;7.484;2024-03-17T05:20:59;6.60;99.90
19220;DHT22;9744;49.364;7.484;2024-03-17T05:23:27;6.60;99.90
19220;DHT22;9744;49.364;7.484;2024-03-17T05:25:55;6.70;99.90
19220;DHT22;9744;49.364;7.484;2024-03-17T05:28:23;6.60;99.90
19220;DHT22;9744;49.364;7.484;2024-03-17T05:30:51;6.70;99.90
19220;DHT22;9744;49.364;7.484;2024-03-17T05:33:18;6.70;99.90
19220;DHT22;9744;49.364;7.484;2024-03-17T05:35:50;6.70;99.90
19220;DHT22;9744;49.364;7.484;2024-03-17T05:38:20;6.70;99.90
19220;DHT22;9744;49.364;7.484;2024-03-17T05:40:54;6.70;99.90
19220;DHT22;9744;49.364;7.484;2024-03-17T05:43:22;6.70;99.90
19220;DHT22;9744;49.364;7.484;2024-03-17T05:45:50;6.70;99.90
19220;DHT22;9744;49.364;7.484;2024-03-17T05:48:17;6.70;99.90
19220;DHT22;9744;49.364;7.484;2024-03-17T05:50:44;6.70;99.90
19220;DHT22;9744;49.364;7.484;2024-03-17T05:53:12;6.70;99.90
19220;DHT22;9744;49.364;7.484;2024-03-17T05:55:41;6.70;99.90
19220;DHT22;9744;49.364;7.484;2024-03-17T05:58:09;6.60;99.90
19220;DHT22;9744;49.364;7.484;2024-03-17T06:00:36;6.60;99.90
19220;DHT22;9744;49.364;7.484;2024-03-17T06:03:04;6.60;99.90
19220;DHT22;9744;49.364;7.484;2024-03-17T06:05:32;6.50;99.90
19220;DHT22;9744;49.364;7.484;2024-03-17T06:08:01;6.40;99.90
19220;DHT22;9744;49.364;7.484;2024-03-17T06:10:30;6.30;99.90
19220;DHT22;9744;49.364;7.484;2024-03-17T06:13:00;6.30;99.90
19220;DHT22;9744;49.364;7.484;2024-03-17T06:15:28;6.20;99.90
19220;DHT22;9744;49.364;7.484;2024-03-17T06:17:56;6.20;99.90
19220;DHT22;9744;49.364;7.484;2024-03-17T06:20:25;6.30;99.90
19220;DHT22;9744;49.364;7.484;2024-03-17T06:22:53;6.30;99.90
19220;DHT22;9744;49.364;7.484;2024-03-17T06:25:20;6.30;99.90
19220;DHT22;9744;49.364;7.484;2024-03-17T06:27:49;6.30;99.90
19220;DHT22;9744;49.364;7.484;2024-03-17T06:30:19;6.30;99.90
19220;DHT22;9744;49.364;7.484;2024-03-17T06:32:47;6.30;99.90
19220;DHT22;9744;49.364;7.484;2024-03-17T06:35:15;6.30;99.90
19220;DHT22;9744;49.364;7.484;2024-03-17T06:37:44;6.20;99.90
19220;DHT22;9744;49.364;7.484;2024-03-17T06:40:13;6.20;99.90
19220;DHT22;9744;49.364;7.484;2024-03-17T06:42:41;6.30;99.90
19220;DHT22;9744;49.364;7.484;2024-03-17T06:45:08;6.20;99.90
19220;DHT22;9744;49.364;7.484;2024-03-17T06:47:38;6.10;99.90
19220;DHT22;9744;49.364;7.484;2024-03-17T06:50:07;6.10;99.90
19220;DHT22;9744;49.364;7.484;2024-03-17T06:52:35;5.90;99.90
19220;DHT22;9744;49.364;7.484;2024-03-17T06:55:03;5.90;99.90
19220;DHT22;9744;49.364;7.484;2024-03-17T06:57:30;5.90;99.90
19220;DHT22;9744;49.364;7.484;2024-03-17T06:59:59;6.00;99.90
19220;DHT22;9744;49.364;7.484;2024-03-17T07:02:26;6.00;99.90
19220;DHT22;9744;49.364;7.484;2024-03-17T07:04:55;6.10;99.90
19220;DHT22;9744;49.364;7.484;2024-03-17T07:07:23;6.10;99.90
19220;DHT22;9744;49.364;7.484;2024-03-17T07:09:53;6.20;99.90
19220;DHT22;9744;49.364;7.484;2024-03-17T07:12:20;6.10;99.90
19220;DHT22;9744;49.364;7.484;2024-03-17T07:14:50;6.20;99.90
19220;DHT22;9744;49.364;7.484;2024-03-17T07:17:17;6.30;99.90
19220;DHT22;9744;49.364;7.484;2024-03-17T07:19:44;6.30;99.90
19220;DHT22;9744;49.364;7.484;2024-03-17T07:22:13;6.20;99.90
19220;DHT22;9744;49.364;7.484;2024-03-17T07:24:40;6.30;99.90
19220;DHT22;9744;49.364;7.484;2024-03-17T07:27:09;6.30;99.90
19220;DHT22;9744;49.364;7.484;2024-03-17T07:29:39;6.30;99.90
19220;DHT22;9744;49.364;7.484;2024-03-17T07:32:07;6.30;99.90
19220;DHT22;9744;49.364;7.484;2024-03-17T07:34:34;6.30;99.90
19220;DHT22;9744;49.364;7.484;2024-03-17T07:37:01;6.30;99.90
19220;DHT22;9744;49.364;7.484;2024-03-17T07:39:30;6.40;99.90
19220;DHT22;9744;49.364;7.484;2024-03-17T07:41:59;6.50;99.90
19220;DHT22;9744;49.364;7.484;2024-03-17T07:44:27;6.40;99.90
19220;DHT22;9744;49.364;7.484;2024-03-17T07:46:59;6.40;99.90
19220;DHT22;9744;49.364;7.484;2024-03-17T07:49:26;6.50;99.90
19220;DHT22;9744;49.364;7.484;2024-03-17T07:51:54;6.60;99.90
19220;DHT22;9744;49.364;7.484;2024-03-17T07:54:21;6.70;99.90
19220;DHT22;9744;49.364;7.484;2024-03-17T07:56:49;6.90;99.90
19220;DHT22;9744;49.364;7.484;2024-03-17T07:59:17;7.00;99.90
19220;DHT22;9744;49.364;7.484;2024-03-17T08:01:44;7.10;99.90
19220;DHT22;9744;49.364;7.484;2024-03-17T08:04:12;7.30;99.90
19220;DHT22;9744;49.364;7.484;2024-03-17T08:06:39;7.40;99.90
19220;DHT22;9744;49.364;7.484;2024-03-17T08:09:07;7.50;99.90
19220;DHT22;9744;49.364;7.484;2024-03-17T08:11:34;7.60;99.90
19220;DHT22;9744;49.364;7.484;2024-03-17T08:14:03;7.70;99.90
19220;DHT22;9744;49.364;7.484;2024-03-17T08:16:31;7.80;99.90
19220;DHT22;9744;49.364;7.484;2024-03-17T08:18:59;7.80;99.90
19220;DHT22;9744;49.364;7.484;2024-03-17T08:21:26;7.90;99.90
19220;DHT22;9744;49.364;7.484;2024-03-17T08:23:55;8.00;99.90
19220;DHT22;9744;49.364;7.484;2024-03-17T08:26:23;8.10;99.90
19220;DHT22;9744;49.364;7.484;2024-03-17T08:28:50;8.20;99.90
19220;DHT22;9744;49.364;7.484;2024-03-17T08:31:19;8.30;99.90
19220;DHT22;9744;49.364;7.484;2024-03-17T08:33:46;8.40;99.90
19220;DHT22;9744;49.364;7.484;2024-03-17T08:36:16;8.50;99.90
19220;DHT22;9744;49.364;7.484;2024-03-17T08:38:44;8.70;99.90
19220;DHT22;9744;49.364;7.484;2024-03-17T08:41:13;8.80;99.90
19220;DHT22;9744;49.364;7.484;2024-03-17T08:43:41;9.00;99.90
19220;DHT22;9744;49.364;7.484;2024-03-17T08:46:10;9.10;99.90
19220;DHT22;9744;49.364;7.484;2024-03-17T08:48:41;9.30;99.90
19220;DHT22;9744;49.364;7.484;2024-03-17T08:51:09;9.50;99.90
19220;DHT22;9744;49.364;7.484;2024-03-17T08:53:37;9.60;99.90
19220;DHT22;9744;49.364;7.484;2024-03-17T08:56:06;9.70;99.90
19220;DHT22;9744;49.364;7.484;2024-03-17T08:58:34;9.70;99.90
19220;DHT22;9744;49.364;7.484;2024-03-17T09:01:05;9.70;99.90
19220;DHT22;9744;49.364;7.484;2024-03-17T09:03:33;9.70;99.90
19220;DHT22;9744;49.364;7.484;2024-03-17T09:06:01;9.70;99.90
19220;DHT22;9744;49.364;7.484;2024-03-17T09:08:31;9.60;99.90
19220;DHT22;9744;49.364;7.484;2024-03-17T09:10:59;9.50;99.90
19220;DHT22;9744;49.364;7.484;2024-03-17T09:13:26;9.50;99.90
19220;DHT22;9744;49.364;7.484;2024-03-17T09:15:54;9.50;99.90
19220;DHT22;9744;49.364;7.484;2024-03-17T09:18:22;9.60;99.90
19220;DHT22;9744;49.364;7.484;2024-03-17T09:20:57;9.60;99.90
19220;DHT22;9744;49.364;7.484;2024-03-17T09:23:26;9.70;99.90
19220;DHT22;9744;49.364;7.484;2024-03-17T09:25:58;9.80;99.90
19220;DHT22;9744;49.364;7.484;2024-03-17T09:28:27;10.00;99.90
19220;DHT22;9744;49.364;7.484;2024-03-17T09:30:55;10.00;99.90
19220;DHT22;9744;49.364;7.484;2024-03-17T09:33:23;10.10;99.90
19220;DHT22;9744;49.364;7.484;2024-03-17T09:35:55;10.10;99.90
19220;DHT22;9744;49.364;7.484;2024-03-17T09:38:22;10.10;99.90
19220;DHT22;9744;49.364;7.484;2024-03-17T09:40:51;10.00;99.90
19220;DHT22;9744;49.364;7.484;2024-03-17T09:43:21;10.00;99.90
19220;DHT22;9744;49.364;7.484;2024-03-17T09:45:48;10.10;99.90
19220;DHT22;9744;49.364;7.484;2024-03-17T09:48:17;10.20;99.90
19220;DHT22;9744;49.364;7.484;2024-03-17T09:50:50;10.30;99.90
19220;DHT22;9744;49.364;7.484;2024-03-17T09:53:23;10.40;99.90
19220;DHT22;9744;49.364;7.484;2024-03-17T09:55:57;10.50;99.90
19220;DHT22;9744;49.364;7.484;2024-03-17T09:58:25;10.70;99.90
19220;DHT22;9744;49.364;7.484;2024-03-17T10:00:52;10.80;99.90
19220;DHT22;9744;49.364;7.484;2024-03-17T10:03:50;10.90;99.90
19220;DHT22;9744;49.364;7.484;2024-03-17T10:06:21;11.20;99.90
19220;DHT22;9744;49.364;7.484;2024-03-17T10:08:49;11.20;99.90
19220;DHT22;9744;49.364;7.484;2024-03-17T10:11:19;11.30;99.90
19220;DHT22;9744;49.364;7.484;2024-03-17T10:13:58;11.40;99.90
19220;DHT22;9744;49.364;7.484;2024-03-17T10:16:27;11.40;99.90
19220;DHT22;9744;49.364;7.484;2024-03-17T10:19:06;11.40;99.90
19220;DHT22;9744;49.364;7.484;2024-03-17T10:21:36;11.50;99.90
19220;DHT22;9744;49.364;7.484;2024-03-17T10:24:08;11.50;99.90
19220;DHT22;9744;49.364;7.484;2024-03-17T10:26:48;11.40;99.90
19220;DHT22;9744;49.364;7.484;2024-03-17T10:29:21;11.50;99.90
19220;DHT22;9744;49.364;7.484;2024-03-17T10:31:51;11.60;99.90
19220;DHT22;9744;49.364;7.484;2024-03-17T10:34:18;11.70;99.90
19220;DHT22;9744;49.364;7.484;2024-03-17T10:36:46;11.70;99.90
19220;DHT22;9744;49.364;7.484;2024-03-17T10:39:23;11.90;99.90
19220;DHT22;9744;49.364;7.484;2024-03-17T10:42:00;12.00;99.90
19220;DHT22;9744;49.364;7.484;2024-03-17T10:44:27;12.10;99.90
19220;DHT22;9744;49.364;7.484;2024-03-17T10:46:57;12.10;99.90
19220;DHT22;9744;49.364;7.484;2024-03-17T10:49:30;12.20;99.90
19220;DHT22;9744;49.364;7.484;2024-03-17T10:52:00;12.40;99.90
19220;DHT22;9744;49.364;7.484;2024-03-17T10:54:28;12.40;99.90
19220;DHT22;9744;49.364;7.484;2024-03-17T10:57:00;12.30;99.90
19220;DHT22;9744;49.364;7.484;2024-03-17T10:59:40;12.20;99.90
19220;DHT22;9744;49.364;7.484;2024-03-17T11:02:20;12.20;99.90
19220;DHT22;9744;49.364;7.484;2024-03-17T11:04:51;12.20;99.90
19220;DHT22;9744;49.364;7.484;2024-03-17T11:07:20;12.20;99.90
19220;DHT22;9744;49.364;7.484;2024-03-17T11:09:49;12.30;99.90
19220;DHT22;9744;49.364;7.484;2024-03-17T11:12:49;12.30;99.90
19220;DHT22;9744;49.364;7.484;2024-03-17T11:15:36;12.50;99.90
19220;DHT22;9744;49.364;7.484;2024-03-17T11:18:29;12.20;99.90
19220;DHT22;9744;49.364;7.484;2024-03-17T11:20:58;12.10;99.90
19220;DHT22;9744;49.364;7.484;2024-03-17T11:23:29;12.20;99.90
19220;DHT22;9744;49.364;7.484;2024-03-17T11:25:58;12.10;99.90
19220;DHT22;9744;49.364;7.484;2024-03-17T11:28:46;12.20;99.90
19220;DHT22;9744;49.364;7.484;2024-03-17T11:34:35;12.40;99.90
19220;DHT22;9744;49.364;7.484;2024-03-17T11:37:05;12.60;99.90
19220;DHT22;9744;49.364;7.484;2024-03-17T11:39:48;12.50;99.90
19220;DHT22;9744;49.364;7.484;2024-03-17T11:42:17;12.70;99.90
19220;DHT22;9744;49.364;7.484;2024-03-17T11:44:57;13.00;99.90
19220;DHT22;9744;49.364;7.484;2024-03-17T11:47:34;13.20;99.90
19220;DHT22;9744;49.364;7.484;2024-03-17T11:50:03;13.30;99.90
19220;DHT22;9744;49.364;7.484;2024-03-17T11:52:31;13.30;99.90
19220;DHT22;9744;49.364;7.484;2024-03-17T11:54:57;13.10;99.90
19220;DHT22;9744;49.364;7.484;2024-03-17T11:57:26;13.00;99.90
19220;DHT22;9744;49.364;7.484;2024-03-17T11:59:55;13.10;99.90
19220;DHT22;9744;49.364;7.484;2024-03-17T12:02:24;12.90;99.90
19220;DHT22;9744;49.364;7.484;2024-03-17T12:04:52;13.00;99.90
19220;DHT22;9744;49.364;7.484;2024-03-17T12:07:20;12.90;99.90
19220;DHT22;9744;49.364;7.484;2024-03-17T12:09:50;12.80;99.90
19220;DHT22;9744;49.364;7.484;2024-03-17T12:12:20;12.70;99.90
19220;DHT22;9744;49.364;7.484;2024-03-17T12:14:47;12.80;99.90
19220;DHT22;9744;49.364;7.484;2024-03-17T12:17:22;12.80;99.90
19220;DHT22;9744;49.364;7.484;2024-03-17T12:19:48;12.70;99.90
19220;DHT22;9744;49.364;7.484;2024-03-17T12:22:18;12.60;99.90
19220;DHT22;9744;49.364;7.484;2024-03-17T12:24:48;12.60;99.90
19220;DHT22;9744;49.364;7.484;2024-03-17T12:27:17;12.70;99.90
19220;DHT22;9744;49.364;7.484;2024-03-17T12:29:47;12.60;99.90
19220;DHT22;9744;49.364;7.484;2024-03-17T12:32:18;12.50;99.90
19220;DHT22;9744;49.364;7.484;2024-03-17T12:34:45;12.40;99.90
19220;DHT22;9744;49.364;7.484;2024-03-17T12:37:16;12.40;99.90
19220;DHT22;9744;49.364;7.484;2024-03-17T12:39:44;12.50;99.90
19220;DHT22;9744;49.364;7.484;2024-03-17T12:42:13;12.50;99.90
19220;DHT22;9744;49.364;7.484;2024-03-17T12:44:49;12.60;99.90
19220;DHT22;9744;49.364;7.484;2024-03-17T12:47:19;12.40;99.90
19220;DHT22;9744;49.364;7.484;2024-03-17T12:49:46;12.40;99.90
19220;DHT22;9744;49.364;7.484;2024-03-17T12:52:18;12.50;99.90
19220;DHT22;9744;49.364;7.484;2024-03-17T12:54:45;12.40;99.90
19220;DHT22;9744;49.364;7.484;2024-03-17T12:57:43;12.30;99.90
19220;DHT22;9744;49.364;7.484;2024-03-17T13:00:28;12.30;99.90
19220;DHT22;9744;49.364;7.484;2024-03-17T13:03:01;12.30;99.90
19220;DHT22;9744;49.364;7.484;2024-03-17T13:05:29;12.30;99.90
19220;DHT22;9744;49.364;7.484;2024-03-17T13:07:57;12.40;99.90
19220;DHT22;9744;49.364;7.484;2024-03-17T13:10:25;12.40;99.90
19220;DHT22;9744;49.364;7.484;2024-03-17T13:13:00;12.50;99.90
19220;DHT22;9744;49.364;7.484;2024-03-17T13:15:28;12.70;99.90
19220;DHT22;9744;49.364;7.484;2024-03-17T13:17:57;12.80;99.90
19220;DHT22;9744;49.364;7.484;2024-03-17T13:20:26;12.90;99.90
19220;DHT22;9744;49.364;7.484;2024-03-17T13:22:54;13.20;99.90
19220;DHT22;9744;49.364;7.484;2024-03-17T13:25:22;13.30;99.90
19220;DHT22;9744;49.364;7.484;2024-03-17T13:27:52;13.60;99.90
19220;DHT22;9744;49.364;7.484;2024-03-17T13:30:21;14.00;99.90
19220;DHT22;9744;49.364;7.484;2024-03-17T13:32:49;14.30;99.90
19220;DHT22;9744;49.364;7.484;2024-03-17T13:35:22;14.50;99.90
19220;DHT22;9744;49.364;7.484;2024-03-17T13:37:52;14.50;99.90
19220;DHT22;9744;49.364;7.484;2024-03-17T13:40:22;14.70;99.90
19220;DHT22;9744;49.364;7.484;2024-03-17T13:42:50;14.80;99.90
19220;DHT22;9744;49.364;7.484;2024-03-17T13:45:19;15.00;99.90
19220;DHT22;9744;49.364;7.484;2024-03-17T13:47:50;14.90;99.90
19220;DHT22;9744;49.364;7.484;2024-03-17T13:50:21;14.90;99.90
19220;DHT22;9744;49.364;7.484;2024-03-17T13:52:49;14.80;99.90
19220;DHT22;9744;49.364;7.484;2024-03-17T13:55:19;14.90;99.90
19220;DHT22;9744;49.364;7.484;2024-03-17T13:57:51;15.10;99.90
19220;DHT22;9744;49.364;7.484;2024-03-17T14:00:21;15.30;99.90
19220;DHT22;9744;49.364;7.484;2024-03-17T14:02:49;15.30;99.90
19220;DHT22;9744;49.364;7.484;2024-03-17T14:05:17;15.10;99.90
19220;DHT22;9744;49.364;7.484;2024-03-17T14:07:44;15.40;99.90
19220;DHT22;9744;49.364;7.484;2024-03-17T14:10:21;15.70;99.90
19220;DHT22;9744;49.364;7.484;2024-03-17T14:12:49;15.60;99.90
19220;DHT22;9744;49.364;7.484;2024-03-17T14:15:16;16.00;99.90
19220;DHT22;9744;49.364;7.484;2024-03-17T14:17:44;16.30;99.90
19220;DHT22;9744;49.364;7.484;2024-03-17T14:20:13;16.50;99.90
19220;DHT22;9744;49.364;7.484;2024-03-17T14:22:44;17.20;99.90
19220;DHT22;9744;49.364;7.484;2024-03-17T14:25:15;17.40;99.90
19220;DHT22;9744;49.364;7.484;2024-03-17T14:27:44;17.20;99.90
19220;DHT22;9744;49.364;7.484;2024-03-17T14:30:16;17.00;99.90
19220;DHT22;9744;49.364;7.484;2024-03-17T14:32:43;16.50;99.90
19220;DHT22;9744;49.364;7.484;2024-03-17T14:35:13;15.90;99.90
19220;DHT22;9744;49.364;7.484;2024-03-17T14:37:41;15.60;99.90
19220;DHT22;9744;49.364;7.484;2024-03-17T14:40:09;15.60;99.90
19220;DHT22;9744;49.364;7.484;2024-03-17T14:42:44;15.40;99.90
19220;DHT22;9744;49.364;7.484;2024-03-17T14:45:12;14.90;99.90
19220;DHT22;9744;49.364;7.484;2024-03-17T14:47:39;14.60;99.90
19220;DHT22;9744;49.364;7.484;2024-03-17T14:50:07;14.40;99.90
19220;DHT22;9744;49.364;7.484;2024-03-17T14:52:35;14.20;99.90
19220;DHT22;9744;49.364;7.484;2024-03-17T14:55:02;14.20;99.90
19220;DHT22;9744;49.364;7.484;2024-03-17T14:57:30;14.10;99.90
19220;DHT22;9744;49.364;7.484;2024-03-17T14:59:59;13.90;99.90
19220;DHT22;9744;49.364;7.484;2024-03-17T15:02:26;13.80;99.90
19220;DHT22;9744;49.364;7.484;2024-03-17T15:04:54;13.90;99.90
19220;DHT22;9744;49.364;7.484;2024-03-17T15:07:21;13.90;99.90
19220;DHT22;9744;49.364;7.484;2024-03-17T15:09:49;13.90;99.90
19220;DHT22;9744;49.364;7.484;2024-03-17T15:12:19;13.80;99.90
19220;DHT22;9744;49.364;7.484;2024-03-17T15:14:47;13.70;99.90
19220;DHT22;9744;49.364;7.484;2024-03-17T15:17:15;13.80;99.90
19220;DHT22;9744;49.364;7.484;2024-03-17T15:19:42;13.80;99.90
19220;DHT22;9744;49.364;7.484;2024-03-17T15:22:13;13.60;99.90
19220;DHT22;9744;49.364;7.484;2024-03-17T15:24:41;13.40;99.90
19220;DHT22;9744;49.364;7.484;2024-03-17T15:27:08;13.40;99.90
19220;DHT22;9744;49.364;7.484;2024-03-17T15:29:36;13.40;99.90
19220;DHT22;9744;49.364;7.484;2024-03-17T15:32:03;13.30;99.90
19220;DHT22;9744;49.364;7.484;2024-03-17T15:34:32;13.00;99.90
19220;DHT22;9744;49.364;7.484;2024-03-17T15:37:03;12.90;99.90
19220;DHT22;9744;49.364;7.484;2024-03-17T15:39:30;12.90;99.90
19220;DHT22;9744;49.364;7.484;2024-03-17T15:41:57;12.90;99.90
19220;DHT22;9744;49.364;7.484;2024-03-17T15:44:25;12.90;99.90
19220;DHT22;9744;49.364;7.484;2024-03-17T15:46:53;12.70;99.90
19220;DHT22;9744;49.364;7.484;2024-03-17T15:49:20;12.40;99.90
19220;DHT22;9744;49.364;7.484;2024-03-17T15:51:49;12.30;99.90
19220;DHT22;9744;49.364;7.484;2024-03-17T15:54:16;12.20;99.90
19220;DHT22;9744;49.364;7.484;2024-03-17T15:56:44;12.20;99.90
19220;DHT22;9744;49.364;7.484;2024-03-17T15:59:11;12.20;99.90
19220;DHT22;9744;49.364;7.484;2024-03-17T16:01:38;12.20;99.90
19220;DHT22;9744;49.364;7.484;2024-03-17T16:04:04;12.10;99.90
19220;DHT22;9744;49.364;7.484;2024-03-17T16:06:32;12.10;99.90
19220;DHT22;9744;49.364;7.484;2024-03-17T16:09:01;12.00;99.90
19220;DHT22;9744;49.364;7.484;2024-03-17T16:11:30;11.90;99.90
19220;DHT22;9744;49.364;7.484;2024-03-17T16:14:00;11.90;99.90
19220;DHT22;9744;49.364;7.484;2024-03-17T16:16:28;11.90;99.90
19220;DHT22;9744;49.364;7.484;2024-03-17T16:18:57;12.00;99.90
19220;DHT22;9744;49.364;7.484;2024-03-17T16:21:26;11.90;99.90
19220;DHT22;9744;49.364;7.484;2024-03-17T16:23:56;11.90;99.90
19220;DHT22;9744;49.364;7.484;2024-03-17T16:26:27;11.90;99.90
19220;DHT22;9744;49.364;7.484;2024-03-17T16:28:54;11.80;99.90
19220;DHT22;9744;49.364;7.484;2024-03-17T16:31:23;11.60;99.90
19220;DHT22;9744;49.364;7.484;2024-03-17T16:33:51;11.60;99.90
19220;DHT22;9744;49.364;7.484;2024-03-17T16:36:18;11.60;99.90
19220;DHT22;9744;49.364;7.484;2024-03-17T16:38:47;11.50;99.90
19220;DHT22;9744;49.364;7.484;2024-03-17T16:41:42;11.50;99.90